createdAt,value
2017-09-01T00:01:29.494Z,5.03
2017-09-01T00:03:58.364Z,4.67
2017-09-01T00:06:27.215Z,5.57
2017-09-01T00:08:56.094Z,4.67
2017-09-01T00:11:24.959Z,4.77
2017-09-01T00:13:53.842Z,4.33
2017-09-01T00:16:22.705Z,3.70
2017-09-01T00:18:51.579Z,4.90
2017-09-01T00:21:20.446Z,5.30
2017-09-01T00:23:49.325Z,5.00
2017-09-01T00:26:18.184Z,5.70
2017-09-01T00:28:47.065Z,5.20
2017-09-01T00:31:15.916Z,4.60
2017-09-01T00:33:44.784Z,5.03
2017-09-01T00:36:13.635Z,4.53
2017-09-01T00:38:42.513Z,4.90
2017-09-01T00:41:11.360Z,6.20
2017-09-01T00:43:40.224Z,4.77
2017-09-01T00:46:09.086Z,4.80
2017-09-01T00:48:37.965Z,4.80
2017-09-01T00:51:06.831Z,6.37
2017-09-01T00:53:35.695Z,5.07
2017-09-01T00:56:04.561Z,4.03
2017-09-01T00:58:33.433Z,4.97
2017-09-01T01:01:02.291Z,5.70
2017-09-01T01:03:31.170Z,5.10
2017-09-01T01:06:00.027Z,4.90
2017-09-01T01:08:28.915Z,5.13
2017-09-01T01:10:57.776Z,5.10
2017-09-01T01:13:26.636Z,4.73
2017-09-01T01:15:55.509Z,4.93
2017-09-01T01:18:24.360Z,6.13
2017-09-01T01:20:53.224Z,6.97
2017-09-01T01:23:22.090Z,6.77
2017-09-01T01:25:50.964Z,5.77
2017-09-01T01:28:19.820Z,8.27
2017-09-01T01:30:48.685Z,5.80
2017-09-01T01:33:17.535Z,7.83
2017-09-01T01:35:46.405Z,6.33
2017-09-01T01:38:15.271Z,6.27
2017-09-01T01:40:44.135Z,6.20
2017-09-01T01:43:12.984Z,5.47
2017-09-01T01:45:41.862Z,5.93
2017-09-01T01:48:10.846Z,6.00
2017-09-01T01:50:39.726Z,6.47
2017-09-01T01:53:08.589Z,6.13
2017-09-01T01:55:37.482Z,5.40
2017-09-01T01:58:06.331Z,4.00
2017-09-01T02:00:35.199Z,5.70
2017-09-01T02:03:04.051Z,5.43
2017-09-01T02:05:32.946Z,4.50
2017-09-01T02:08:01.809Z,6.10
2017-09-01T02:10:31.538Z,5.53
2017-09-01T02:13:00.431Z,5.10
2017-09-01T02:15:29.301Z,4.03
2017-09-01T02:17:58.175Z,4.70
2017-09-01T02:20:27.023Z,6.97
2017-09-01T02:22:55.918Z,5.20
2017-09-01T02:25:24.767Z,5.30
2017-09-01T02:27:53.627Z,6.80
2017-09-01T02:30:22.476Z,4.93
2017-09-01T02:32:51.339Z,5.37
2017-09-01T02:35:20.210Z,6.03
2017-09-01T02:37:49.085Z,5.10
2017-09-01T02:40:17.936Z,7.93
2017-09-01T02:42:46.800Z,7.33
2017-09-01T02:45:15.658Z,8.40
2017-09-01T02:47:44.533Z,7.50
2017-09-01T02:50:13.401Z,6.43
2017-09-01T02:52:42.285Z,4.70
2017-09-01T02:55:11.131Z,6.63
2017-09-01T02:57:40.018Z,5.87
2017-09-01T03:00:08.894Z,4.90
2017-09-01T03:02:37.779Z,5.90
2017-09-01T03:05:06.623Z,5.57
2017-09-01T03:07:35.494Z,5.37
2017-09-01T03:10:04.394Z,6.53
2017-09-01T03:12:33.253Z,6.50
2017-09-01T03:15:02.133Z,8.07
2017-09-01T03:17:30.987Z,10.53
2017-09-01T03:19:59.855Z,6.93
2017-09-01T03:22:28.704Z,6.10
2017-09-01T03:24:57.580Z,6.57
2017-09-01T03:27:26.428Z,7.40
2017-09-01T03:29:55.287Z,5.60
2017-09-01T03:32:24.173Z,6.47
2017-09-01T03:34:53.035Z,6.20
2017-09-01T03:37:21.893Z,8.47
2017-09-01T03:39:50.769Z,5.53
2017-09-01T03:42:19.616Z,5.93
2017-09-01T03:44:48.479Z,5.80
2017-09-01T03:47:17.351Z,5.60
2017-09-01T03:49:46.225Z,5.90
2017-09-01T03:52:15.090Z,6.17
2017-09-01T03:54:43.992Z,5.93
2017-09-01T03:57:12.861Z,5.37
2017-09-01T03:59:41.740Z,6.17
2017-09-01T04:02:10.618Z,7.13
2017-09-01T04:04:39.483Z,6.77
2017-09-01T04:07:08.331Z,6.57
2017-09-01T04:09:37.183Z,7.60
2017-09-01T04:12:06.046Z,7.23
2017-09-01T04:14:34.905Z,6.93
2017-09-01T04:17:03.781Z,7.00
2017-09-01T04:19:32.627Z,7.63
2017-09-01T04:22:01.506Z,28.23
2017-09-01T04:24:30.377Z,7.00
2017-09-01T04:26:59.243Z,7.37
2017-09-01T04:29:28.106Z,9.13
2017-09-01T04:31:56.986Z,7.90
2017-09-01T04:34:25.841Z,8.43
2017-09-01T04:36:54.711Z,10.67
2017-09-01T04:39:23.555Z,9.83
2017-09-01T04:41:52.426Z,8.73
2017-09-01T04:44:21.283Z,12.93
2017-09-01T04:46:50.175Z,11.47
2017-09-01T04:49:19.045Z,11.47
2017-09-01T04:51:47.903Z,10.50
2017-09-01T04:54:16.810Z,9.60
2017-09-01T04:56:45.678Z,10.87
2017-09-01T04:59:14.559Z,11.60
2017-09-01T05:01:43.415Z,10.80
2017-09-01T05:04:12.321Z,12.27
2017-09-01T05:06:41.171Z,9.67
2017-09-01T05:09:10.050Z,10.57
2017-09-01T05:11:38.897Z,9.40
2017-09-01T05:14:07.773Z,8.97
2017-09-01T05:16:36.642Z,9.13
2017-09-01T05:19:05.521Z,8.30
2017-09-01T05:21:34.380Z,9.63
2017-09-01T05:24:03.258Z,9.80
2017-09-01T05:26:32.127Z,11.30
2017-09-01T05:29:01.028Z,7.93
2017-09-01T05:31:29.895Z,9.70
2017-09-01T05:33:58.898Z,9.97
2017-09-01T05:36:27.770Z,9.90
2017-09-01T05:38:56.775Z,10.47
2017-09-01T05:41:25.794Z,11.47
2017-09-01T05:43:54.698Z,11.30
2017-09-01T05:46:23.565Z,15.30
2017-09-01T05:48:52.450Z,13.83
2017-09-01T05:51:21.346Z,12.00
2017-09-01T05:53:50.213Z,11.27
2017-09-01T05:56:19.185Z,11.40
2017-09-01T05:58:48.155Z,10.97
2017-09-01T06:01:17.163Z,10.60
2017-09-01T06:03:46.089Z,12.20
2017-09-01T06:06:14.980Z,11.37
2017-09-01T06:08:43.868Z,12.70
2017-09-01T06:11:12.731Z,10.97
2017-09-01T06:13:41.602Z,10.77
2017-09-01T06:16:10.484Z,11.93
2017-09-01T06:18:39.377Z,12.93
2017-09-01T06:21:08.256Z,9.20
2017-09-01T06:23:37.114Z,9.60
2017-09-01T06:26:06.003Z,10.70
2017-09-01T06:28:34.879Z,10.20
2017-09-01T06:31:03.773Z,11.97
2017-09-01T06:33:32.703Z,7.97
2017-09-01T06:36:01.565Z,9.20
2017-09-01T06:38:30.437Z,8.93
2017-09-01T06:40:59.302Z,7.17
2017-09-01T06:43:28.176Z,7.77
2017-09-01T06:45:57.045Z,8.23
2017-09-01T06:48:25.917Z,6.77
2017-09-01T06:50:54.785Z,6.73
2017-09-01T06:53:23.665Z,8.00
2017-09-01T06:55:52.550Z,7.77
2017-09-01T06:58:21.433Z,8.53
2017-09-01T07:00:50.343Z,6.97
2017-09-01T07:03:19.214Z,6.27
2017-09-01T07:05:48.068Z,7.17
2017-09-01T07:08:17.041Z,5.20
2017-09-01T07:10:45.891Z,5.63
2017-09-01T07:13:14.772Z,5.40
2017-09-01T07:15:43.641Z,11.50
2017-09-01T07:18:12.509Z,7.00
2017-09-01T07:20:41.356Z,5.70
2017-09-01T07:23:10.881Z,4.43
2017-09-01T07:25:39.731Z,5.00
2017-09-01T07:28:08.623Z,7.50
2017-09-01T07:30:37.473Z,5.23
2017-09-01T07:35:41.697Z,5.47
2017-09-01T07:38:10.711Z,4.60
2017-09-01T07:40:39.567Z,6.67
2017-09-01T07:43:08.464Z,4.60
2017-09-01T07:45:37.329Z,4.60
2017-09-01T07:48:06.200Z,7.63
2017-09-01T07:50:35.073Z,7.23
2017-09-01T07:53:03.953Z,5.00
2017-09-01T07:55:32.813Z,7.50
2017-09-01T07:58:01.684Z,4.20
2017-09-01T08:00:30.684Z,4.70
2017-09-01T08:02:59.535Z,6.97
2017-09-01T08:05:28.419Z,6.43
2017-09-01T08:07:57.271Z,8.23
2017-09-01T08:10:26.153Z,7.40
2017-09-01T08:12:55.021Z,3.70
2017-09-01T08:15:23.897Z,4.53
2017-09-01T08:17:52.788Z,5.03
2017-09-01T08:20:21.669Z,7.23
2017-09-01T08:22:50.612Z,5.07
2017-09-01T08:25:19.501Z,4.93
2017-09-01T08:27:48.363Z,5.10
2017-09-01T08:30:17.246Z,6.43
2017-09-01T08:32:46.114Z,4.40
2017-09-01T08:35:15.004Z,2.95
2017-09-01T08:37:43.882Z,3.95
2017-09-01T08:40:12.765Z,3.22
2017-09-01T08:42:41.623Z,4.32
2017-09-01T08:45:10.501Z,6.40
2017-09-01T08:47:39.358Z,2.65
2017-09-01T08:50:08.237Z,6.47
2017-09-01T08:52:37.111Z,2.72
2017-09-01T08:55:06.001Z,3.75
2017-09-01T08:57:34.848Z,2.90
2017-09-01T09:00:03.728Z,3.15
2017-09-01T09:02:32.607Z,5.53
2017-09-01T09:05:01.481Z,3.03
2017-09-01T09:07:30.349Z,4.53
2017-09-01T09:09:59.215Z,3.17
2017-09-01T09:12:28.075Z,3.47
2017-09-01T09:14:56.961Z,2.90
2017-09-01T09:17:25.821Z,3.55
2017-09-01T09:19:54.715Z,3.53
2017-09-01T09:22:23.589Z,4.30
2017-09-01T09:24:52.467Z,4.17
2017-09-01T09:27:21.329Z,6.20
2017-09-01T09:29:50.269Z,4.40
2017-09-01T09:32:19.129Z,3.90
2017-09-01T09:34:48.020Z,4.97
2017-09-01T09:37:16.867Z,5.20
2017-09-01T09:39:45.799Z,4.93
2017-09-01T09:42:14.651Z,2.43
2017-09-01T09:44:43.541Z,6.47
2017-09-01T09:47:12.406Z,2.83
2017-09-01T09:49:41.281Z,6.30
2017-09-01T09:52:10.140Z,4.80
2017-09-01T09:54:39.041Z,3.17
2017-09-01T09:57:07.901Z,3.47
2017-09-01T09:59:36.773Z,4.67
2017-09-01T10:02:05.672Z,2.53
2017-09-01T10:04:34.534Z,3.40
2017-09-01T10:07:03.410Z,3.57
2017-09-01T10:09:32.259Z,3.65
2017-09-01T10:12:01.182Z,2.85
2017-09-01T10:14:30.037Z,3.80
2017-09-01T10:16:58.917Z,2.85
2017-09-01T10:19:27.776Z,5.03
2017-09-01T10:21:56.653Z,3.50
2017-09-01T10:24:25.519Z,4.00
2017-09-01T10:26:54.388Z,5.00
2017-09-01T10:29:23.248Z,6.65
2017-09-01T10:31:52.120Z,3.77
2017-09-01T10:34:21.016Z,3.40
2017-09-01T10:36:49.928Z,5.40
2017-09-01T10:39:18.793Z,2.60
2017-09-01T10:41:47.685Z,3.07
2017-09-01T10:44:16.536Z,3.27
2017-09-01T10:46:45.412Z,3.83
2017-09-01T10:49:18.076Z,5.17
2017-09-01T10:51:52.765Z,2.83
2017-09-01T10:54:27.565Z,2.70
2017-09-01T10:57:13.144Z,3.93
2017-09-01T10:59:42.005Z,3.20
2017-09-01T11:02:10.881Z,2.87
2017-09-01T11:04:39.739Z,4.50
2017-09-01T11:07:08.626Z,4.13
2017-09-01T11:09:37.487Z,4.30
2017-09-01T11:12:07.244Z,3.90
2017-09-01T11:14:36.108Z,4.20
2017-09-01T11:17:05.010Z,5.40
2017-09-01T11:19:39.543Z,3.77
2017-09-01T11:22:14.070Z,4.37
2017-09-01T11:24:42.949Z,4.70
2017-09-01T11:27:11.827Z,4.33
2017-09-01T11:29:40.689Z,7.87
2017-09-01T11:32:09.559Z,3.90
2017-09-01T11:34:38.426Z,3.60
2017-09-01T11:37:07.276Z,3.00
2017-09-01T11:39:36.175Z,3.50
2017-09-01T11:42:05.035Z,3.63
2017-09-01T11:44:33.913Z,3.73
2017-09-01T11:47:02.782Z,4.30
2017-09-01T11:49:31.657Z,3.17
2017-09-01T11:52:00.521Z,2.07
2017-09-01T11:54:29.411Z,3.57
2017-09-01T11:56:58.279Z,3.30
2017-09-01T11:59:27.151Z,3.83
2017-09-01T12:01:56.005Z,2.60
2017-09-01T12:04:24.877Z,5.70
2017-09-01T12:06:53.736Z,2.30
2017-09-01T12:09:22.604Z,4.40
2017-09-01T12:11:51.485Z,3.33
2017-09-01T12:14:20.374Z,2.93
2017-09-01T12:16:49.227Z,2.40
2017-09-01T12:19:18.099Z,3.20
2017-09-01T12:21:46.957Z,3.57
2017-09-01T12:24:15.836Z,3.00
2017-09-01T12:26:44.711Z,4.67
2017-09-01T12:29:13.585Z,3.83
2017-09-01T12:31:42.449Z,4.63
2017-09-01T12:34:11.330Z,2.80
2017-09-01T12:36:40.193Z,2.57
2017-09-01T12:39:09.073Z,3.27
2017-09-01T12:41:37.944Z,3.27
2017-09-01T12:44:06.818Z,3.60
2017-09-01T12:46:35.701Z,4.00
2017-09-01T12:49:04.556Z,4.37
2017-09-01T12:51:33.428Z,2.90
2017-09-01T12:54:02.293Z,3.97
2017-09-01T12:56:31.176Z,3.63
2017-09-01T12:59:00.023Z,2.90
2017-09-01T13:01:28.894Z,2.67
2017-09-01T13:03:57.788Z,4.63
2017-09-01T13:06:26.670Z,6.33
2017-09-01T13:08:55.549Z,4.60
2017-09-01T13:11:24.439Z,4.80
2017-09-01T13:13:53.305Z,6.67
2017-09-01T13:16:22.185Z,2.90
2017-09-01T13:18:51.087Z,3.60
2017-09-01T13:21:19.964Z,3.73
2017-09-01T13:26:24.183Z,6.97
2017-09-01T13:28:53.059Z,3.27
2017-09-01T13:31:21.938Z,3.87
2017-09-01T13:33:50.807Z,2.50
2017-09-01T13:36:19.684Z,4.07
2017-09-01T13:38:48.540Z,4.10
2017-09-01T13:41:17.412Z,5.03
2017-09-01T13:43:46.261Z,4.00
2017-09-01T13:46:15.137Z,2.83
2017-09-01T13:48:44.015Z,4.10
2017-09-01T13:51:12.889Z,3.73
2017-09-01T13:53:41.756Z,3.60
2017-09-01T13:56:10.623Z,6.23
2017-09-01T13:58:39.486Z,5.17
2017-09-01T14:01:08.369Z,3.70
2017-09-01T14:03:37.220Z,4.80
2017-09-01T14:06:06.108Z,6.20
2017-09-01T14:08:34.968Z,4.87
2017-09-01T14:11:03.815Z,4.70
2017-09-01T14:13:32.695Z,3.30
2017-09-01T14:16:01.555Z,2.37
2017-09-01T14:18:30.427Z,5.03
2017-09-01T14:20:59.307Z,5.00
2017-09-01T14:23:28.189Z,4.60
2017-09-01T14:25:57.055Z,3.40
2017-09-01T14:28:25.919Z,4.20
2017-09-01T14:30:54.776Z,3.50
2017-09-01T14:33:23.657Z,4.87
2017-09-01T14:35:52.513Z,4.00
2017-09-01T14:38:21.393Z,4.00
2017-09-01T14:40:50.260Z,4.63
2017-09-01T14:43:19.141Z,3.27
2017-09-01T14:45:48.007Z,6.33
2017-09-01T14:48:16.885Z,2.83
2017-09-01T14:50:45.765Z,3.50
2017-09-01T14:53:14.755Z,5.73
2017-09-01T14:55:43.631Z,6.03
2017-09-01T14:58:12.508Z,4.10
2017-09-01T15:00:41.374Z,3.63
2017-09-01T15:03:10.223Z,3.17
2017-09-01T15:05:39.109Z,3.73
2017-09-01T15:08:07.984Z,4.60
2017-09-01T15:10:36.873Z,5.10
2017-09-01T15:13:05.729Z,4.33
2017-09-01T15:15:34.605Z,4.97
2017-09-01T15:18:03.467Z,3.50
2017-09-01T15:20:32.345Z,3.60
2017-09-01T15:23:01.202Z,3.93
2017-09-01T15:25:30.068Z,4.33
2017-09-01T15:27:58.969Z,4.03
2017-09-01T15:30:27.835Z,4.60
2017-09-01T15:32:56.703Z,5.60
2017-09-01T15:35:25.611Z,4.27
2017-09-01T15:37:54.536Z,4.23
2017-09-01T15:40:23.543Z,3.73
2017-09-01T15:42:53.432Z,5.17
2017-09-01T15:45:23.326Z,4.70
2017-09-01T15:47:52.273Z,5.80
2017-09-01T15:50:21.178Z,4.10
2017-09-01T15:52:50.135Z,4.47
2017-09-01T15:55:19.588Z,5.30
2017-09-01T15:57:48.513Z,5.67
2017-09-01T16:00:17.438Z,4.80
2017-09-01T16:02:46.678Z,5.13
2017-09-01T16:05:15.590Z,4.93
2017-09-01T16:07:44.489Z,3.73
2017-09-01T16:10:13.456Z,4.30
2017-09-01T16:12:42.307Z,8.20
2017-09-01T16:15:11.169Z,4.37
2017-09-01T16:17:40.072Z,4.60
2017-09-01T16:20:08.954Z,4.50
2017-09-01T16:22:37.853Z,5.53
2017-09-01T16:25:06.726Z,6.20
2017-09-01T16:27:35.598Z,3.40
2017-09-01T16:30:04.474Z,5.97
2017-09-01T16:32:33.419Z,3.73
2017-09-01T16:35:02.286Z,4.80
2017-09-01T16:37:31.170Z,4.70
2017-09-01T16:40:00.030Z,7.00
2017-09-01T16:42:28.913Z,4.53
2017-09-01T16:44:57.773Z,4.40
2017-09-01T16:47:26.664Z,4.93
2017-09-01T16:49:55.516Z,3.40
2017-09-01T16:52:24.389Z,4.77
2017-09-01T16:54:53.266Z,3.87
2017-09-01T16:57:22.140Z,3.73
2017-09-01T16:59:51.006Z,5.60
2017-09-01T17:02:19.888Z,6.53
2017-09-01T17:04:48.748Z,6.17
2017-09-01T17:07:17.647Z,5.80
2017-09-01T17:09:46.573Z,8.60
2017-09-01T17:12:15.431Z,5.47
2017-09-01T17:14:44.317Z,4.47
2017-09-01T17:17:13.173Z,5.60
2017-09-01T17:19:42.047Z,8.10
2017-09-01T17:22:10.915Z,5.70
2017-09-01T17:24:39.793Z,5.93
2017-09-01T17:27:08.673Z,4.97
2017-09-01T17:29:37.557Z,4.70
2017-09-01T17:32:06.412Z,4.97
2017-09-01T17:34:35.283Z,6.13
2017-09-01T17:37:04.154Z,4.47
2017-09-01T17:39:33.033Z,8.77
2017-09-01T17:42:01.897Z,6.67
2017-09-01T17:44:30.849Z,4.53
2017-09-01T17:46:59.699Z,8.40
2017-09-01T17:49:28.594Z,7.10
2017-09-01T17:51:57.447Z,12.40
2017-09-01T17:54:26.335Z,4.17
2017-09-01T17:56:55.195Z,5.20
2017-09-01T17:59:24.075Z,5.13
2017-09-01T18:01:52.923Z,8.37
2017-09-01T18:04:21.816Z,6.30
2017-09-01T18:06:50.667Z,5.33
2017-09-01T18:09:19.524Z,8.80
2017-09-01T18:11:48.395Z,8.50
2017-09-01T18:14:17.245Z,7.93
2017-09-01T18:16:46.130Z,6.80
2017-09-01T18:19:15.014Z,5.27
2017-09-01T18:21:43.893Z,4.83
2017-09-01T18:24:12.766Z,4.23
2017-09-01T18:26:41.641Z,7.77
2017-09-01T18:29:10.532Z,5.27
2017-09-01T18:31:39.412Z,8.87
2017-09-01T18:34:08.282Z,4.53
2017-09-01T18:36:37.152Z,8.13
2017-09-01T18:39:06.011Z,5.90
2017-09-01T18:41:34.893Z,6.40
2017-09-01T18:44:03.754Z,8.50
2017-09-01T18:46:32.629Z,6.90
2017-09-01T18:49:01.487Z,6.17
2017-09-01T18:51:30.427Z,7.03
2017-09-01T18:53:59.280Z,6.53
2017-09-01T18:56:28.156Z,6.47
2017-09-01T18:58:57.008Z,6.63
2017-09-01T19:01:25.888Z,5.07
2017-09-01T19:03:54.754Z,4.80
2017-09-01T19:06:23.640Z,6.40
2017-09-01T19:08:52.491Z,9.17
2017-09-01T19:11:21.381Z,5.73
2017-09-01T19:13:50.289Z,6.10
2017-09-01T19:16:19.189Z,8.53
2017-09-01T19:18:48.057Z,6.30
2017-09-01T19:21:16.919Z,5.00
2017-09-01T19:23:45.768Z,5.50
2017-09-01T19:26:14.655Z,7.80
2017-09-01T19:28:43.509Z,5.77
2017-09-01T19:31:12.358Z,5.30
2017-09-01T19:33:41.236Z,4.93
2017-09-01T19:36:10.108Z,6.03
2017-09-01T19:38:38.994Z,8.30
2017-09-01T19:41:07.853Z,6.77
2017-09-01T19:43:36.736Z,7.40
2017-09-01T19:46:05.601Z,6.47
2017-09-01T19:48:34.488Z,7.23
2017-09-01T19:51:03.367Z,5.37
2017-09-01T19:53:32.256Z,6.33
2017-09-01T19:56:01.108Z,6.50
2017-09-01T19:58:29.989Z,6.87
2017-09-01T20:00:58.891Z,5.43
2017-09-01T20:03:27.774Z,8.50
2017-09-01T20:05:56.646Z,5.93
2017-09-01T20:08:25.527Z,7.63
2017-09-01T20:10:54.379Z,5.93
2017-09-01T20:13:23.247Z,8.73
2017-09-01T20:15:52.116Z,6.47
2017-09-01T20:18:21.004Z,9.50
2017-09-01T20:20:49.872Z,8.40
2017-09-01T20:23:18.735Z,7.20
2017-09-01T20:25:47.587Z,5.90
2017-09-01T20:28:16.494Z,6.33
2017-09-01T20:30:45.349Z,6.73
2017-09-01T20:33:14.217Z,6.17
2017-09-01T20:35:43.097Z,6.33
2017-09-01T20:38:11.957Z,5.40
2017-09-01T20:40:40.842Z,5.53
2017-09-01T20:43:09.702Z,5.50
2017-09-01T20:45:38.577Z,7.40
2017-09-01T20:48:07.445Z,7.03
2017-09-01T20:50:36.316Z,8.03
2017-09-01T20:53:05.217Z,6.90
2017-09-01T20:55:34.093Z,6.40
2017-09-01T20:58:02.951Z,8.97
2017-09-01T21:00:31.818Z,5.47
2017-09-01T21:03:00.685Z,10.00
2017-09-01T21:05:29.551Z,7.50
2017-09-01T21:07:58.415Z,5.87
2017-09-01T21:10:27.293Z,7.33
2017-09-01T21:12:56.154Z,6.80
2017-09-01T21:15:25.048Z,6.37
2017-09-01T21:17:53.925Z,6.40
2017-09-01T21:20:22.795Z,7.70
2017-09-01T21:22:51.681Z,7.83
2017-09-01T21:25:20.540Z,6.50
2017-09-01T21:27:49.426Z,6.03
2017-09-01T21:30:18.295Z,7.53
2017-09-01T21:32:47.176Z,10.63
2017-09-01T21:35:16.028Z,8.67
2017-09-01T21:37:44.918Z,5.93
2017-09-01T21:40:13.779Z,6.47
2017-09-01T21:42:42.649Z,8.07
2017-09-01T21:45:11.522Z,6.83
2017-09-01T21:47:40.401Z,6.83
2017-09-01T21:50:09.254Z,4.30
2017-09-01T21:52:38.145Z,7.00
2017-09-01T21:55:06.999Z,8.90
2017-09-01T21:57:35.879Z,5.30
2017-09-01T22:00:04.729Z,6.43
2017-09-01T22:02:33.608Z,6.03
2017-09-01T22:05:02.462Z,6.83
2017-09-01T22:07:31.341Z,6.73
2017-09-01T22:10:00.219Z,10.80
2017-09-01T22:12:29.089Z,7.67
2017-09-01T22:14:57.953Z,5.30
2017-09-01T22:17:26.829Z,7.20
2017-09-01T22:19:55.692Z,6.97
2017-09-01T22:22:24.583Z,5.87
2017-09-01T22:24:53.431Z,5.37
2017-09-01T22:27:22.289Z,7.20
2017-09-01T22:29:51.161Z,6.63
2017-09-01T22:32:20.033Z,5.73
2017-09-01T22:34:48.902Z,6.40
2017-09-01T22:37:17.756Z,5.23
2017-09-01T22:39:46.635Z,9.43
2017-09-01T22:42:15.479Z,6.80
2017-09-01T22:44:44.359Z,4.83
2017-09-01T22:47:13.240Z,5.93
2017-09-01T22:49:42.120Z,6.03
2017-09-01T22:52:10.981Z,4.80
2017-09-01T22:54:39.862Z,5.53
2017-09-01T22:57:08.720Z,7.07
2017-09-01T22:59:37.603Z,5.47
2017-09-01T23:02:06.463Z,5.63
2017-09-01T23:04:35.327Z,5.57
2017-09-01T23:07:04.189Z,9.30
2017-09-01T23:09:33.094Z,10.30
2017-09-01T23:12:01.960Z,7.93
2017-09-01T23:14:30.823Z,6.43
2017-09-01T23:16:59.701Z,5.67
2017-09-01T23:19:28.570Z,4.60
2017-09-01T23:21:57.436Z,7.13
2017-09-01T23:24:26.288Z,5.57
2017-09-01T23:26:55.168Z,5.40
2017-09-01T23:29:24.941Z,5.83
2017-09-01T23:31:53.821Z,9.73
2017-09-01T23:34:22.688Z,6.43
2017-09-01T23:36:51.561Z,6.20
2017-09-01T23:39:20.417Z,6.13
2017-09-01T23:41:49.297Z,6.23
2017-09-01T23:44:18.155Z,5.40
2017-09-01T23:46:47.040Z,6.07
2017-09-01T23:49:15.914Z,7.03
2017-09-01T23:51:44.797Z,7.03
2017-09-01T23:54:13.665Z,6.80
2017-09-01T23:56:42.535Z,5.03
2017-09-01T23:59:11.398Z,6.27
